createdAt,value
2022-10-30T00:02:34.277Z,101069
2022-10-30T00:07:34.455Z,101069
2022-10-30T00:12:34.288Z,101064
2022-10-30T00:17:34.420Z,101064
2022-10-30T00:22:34.164Z,101064
2022-10-30T00:27:34.194Z,101060
2022-10-30T00:32:34.249Z,101046
2022-10-30T00:42:34.765Z,101046
2022-10-30T00:47:34.162Z,101049
2022-10-30T00:52:34.481Z,101049
2022-10-30T00:57:34.220Z,101045
2022-10-30T01:02:34.548Z,101045
2022-10-30T01:07:34.256Z,101027
2022-10-30T01:12:34.210Z,101025
2022-10-30T01:22:34.361Z,101017
2022-10-30T01:27:34.551Z,101017
2022-10-30T01:32:34.171Z,101013
2022-10-30T01:37:34.194Z,101008
2022-10-30T01:42:34.372Z,101007
2022-10-30T01:47:34.438Z,101013
2022-10-30T01:57:34.701Z,101019
2022-10-30T02:02:34.412Z,101021
2022-10-30T02:07:34.408Z,101014
2022-10-30T02:12:34.545Z,101014
2022-10-30T02:17:34.189Z,101013
2022-10-30T02:22:34.563Z,101014
2022-10-30T02:27:34.243Z,100997
2022-10-30T02:32:34.227Z,100988
2022-10-30T02:37:34.233Z,100991
2022-10-30T02:42:34.235Z,100991
2022-10-30T02:47:34.245Z,101001
2022-10-30T02:52:34.428Z,101003
2022-10-30T03:02:34.396Z,101008
2022-10-30T03:07:34.515Z,101008
2022-10-30T03:17:34.825Z,101012
2022-10-30T03:22:34.361Z,101008
2022-10-30T03:27:34.274Z,101010
2022-10-30T03:32:34.272Z,101010
2022-10-30T03:37:34.271Z,101001
2022-10-30T03:47:34.416Z,100994
2022-10-30T03:52:34.247Z,100992
2022-10-30T03:57:34.278Z,100992
2022-10-30T04:02:34.511Z,100992
2022-10-30T04:07:34.363Z,100986
2022-10-30T04:12:34.505Z,100984
2022-10-30T04:17:34.330Z,100985
2022-10-30T04:22:34.282Z,100988
2022-10-30T04:27:34.682Z,100982
2022-10-30T04:32:34.401Z,100982
2022-10-30T04:37:34.580Z,100982
2022-10-30T04:42:34.465Z,100988
2022-10-30T04:47:34.328Z,100998
2022-10-30T04:52:34.380Z,100988
2022-10-30T04:57:34.531Z,100988
2022-10-30T05:02:34.729Z,100982
2022-10-30T05:07:34.468Z,100989
2022-10-30T05:12:34.636Z,101011
2022-10-30T05:17:34.297Z,101011
2022-10-30T05:22:34.599Z,101005
2022-10-30T05:27:34.388Z,101011
2022-10-30T05:32:34.474Z,101000
2022-10-30T05:37:34.378Z,101000
2022-10-30T05:42:34.337Z,101007
2022-10-30T05:47:34.299Z,101005
2022-10-30T05:52:34.834Z,101011
2022-10-30T05:57:34.551Z,101022
2022-10-30T06:02:34.519Z,101014
2022-10-30T06:07:34.624Z,101013
2022-10-30T06:12:34.323Z,101008
2022-10-30T06:17:38.526Z,101005
2022-10-30T06:22:34.379Z,101005
2022-10-30T06:27:34.333Z,101031
2022-10-30T06:37:34.550Z,101036
2022-10-30T06:42:34.336Z,101039
2022-10-30T06:52:34.369Z,101032
2022-10-30T06:57:34.465Z,101032
2022-10-30T07:07:34.706Z,101034
2022-10-30T07:12:34.626Z,101036
2022-10-30T07:17:34.406Z,101029
2022-10-30T07:22:34.552Z,101029
2022-10-30T07:27:34.689Z,101044
2022-10-30T07:32:34.539Z,101044
2022-10-30T07:37:34.371Z,101046
2022-10-30T07:42:34.563Z,101046
2022-10-30T07:47:34.604Z,101055
2022-10-30T07:52:34.697Z,101055
2022-10-30T07:57:34.558Z,101053
2022-10-30T08:02:34.541Z,101053
2022-10-30T08:07:34.388Z,101048
2022-10-30T08:12:34.722Z,101050
2022-10-30T08:17:34.448Z,101058
2022-10-30T08:22:34.647Z,101061
2022-10-30T08:27:34.550Z,101061
2022-10-30T08:32:34.408Z,101056
2022-10-30T08:37:34.477Z,101055
2022-10-30T08:42:34.634Z,101057
2022-10-30T08:47:34.748Z,101057
2022-10-30T08:52:34.549Z,101049
2022-10-30T08:57:34.753Z,101055
2022-10-30T09:02:34.574Z,101055
2022-10-30T09:07:34.708Z,101052
2022-10-30T09:12:34.512Z,101058
2022-10-30T09:17:34.709Z,101053
2022-10-30T09:27:34.562Z,101059
2022-10-30T09:32:34.470Z,101059
2022-10-30T09:37:34.624Z,101053
2022-10-30T09:42:34.443Z,101050
2022-10-30T09:47:34.423Z,101044
2022-10-30T09:52:34.719Z,101046
2022-10-30T09:57:34.449Z,101039
2022-10-30T10:02:34.931Z,101039
2022-10-30T10:07:34.457Z,101025
2022-10-30T10:12:34.519Z,101025
2022-10-30T10:17:34.438Z,101026
2022-10-30T10:22:34.458Z,101019
2022-10-30T10:27:34.779Z,101019
2022-10-30T10:32:34.557Z,101018
2022-10-30T10:37:34.760Z,101012
2022-10-30T10:42:34.569Z,101012
2022-10-30T10:47:34.706Z,101013
2022-10-30T10:52:34.484Z,101013
2022-10-30T10:57:34.713Z,100994
2022-10-30T11:02:34.611Z,100994
2022-10-30T11:07:34.801Z,100994
2022-10-30T11:12:36.350Z,100992
2022-10-30T11:17:34.547Z,100987
2022-10-30T11:22:34.467Z,100994
2022-10-30T11:27:34.552Z,100982
2022-10-30T11:32:34.942Z,100976
2022-10-30T11:37:34.471Z,100980
2022-10-30T11:42:34.722Z,100972
2022-10-30T11:52:34.648Z,100957
2022-10-30T11:57:34.807Z,100957
2022-10-30T12:02:34.579Z,100957
2022-10-30T12:07:34.776Z,100953
2022-10-30T12:12:34.563Z,100962
2022-10-30T12:17:34.756Z,100952
2022-10-30T12:22:34.580Z,100952
2022-10-30T12:27:34.523Z,100942
2022-10-30T12:32:39.340Z,100944
2022-10-30T12:37:34.539Z,100952
2022-10-30T12:42:34.521Z,100947
2022-10-30T12:47:34.727Z,100947
2022-10-30T12:52:34.508Z,100949
2022-10-30T12:57:34.581Z,100949
2022-10-30T13:02:34.843Z,100936
2022-10-30T13:07:34.574Z,100936
2022-10-30T13:12:34.625Z,100942
2022-10-30T13:17:34.562Z,100941
2022-10-30T13:22:34.766Z,100939
2022-10-30T13:27:34.846Z,100939
2022-10-30T13:32:34.511Z,100945
2022-10-30T13:37:35.090Z,100945
2022-10-30T13:42:34.721Z,100942
2022-10-30T13:47:35.045Z,100942
2022-10-30T13:52:34.626Z,100935
2022-10-30T13:57:34.557Z,100935
2022-10-30T14:02:34.663Z,100934
2022-10-30T14:07:34.859Z,100947
2022-10-30T14:12:34.880Z,100947
2022-10-30T14:17:34.658Z,100948
2022-10-30T14:22:34.550Z,100950
2022-10-30T14:27:34.673Z,100950
2022-10-30T14:32:34.563Z,100942
2022-10-30T14:37:34.586Z,100933
2022-10-30T14:42:34.542Z,100932
2022-10-30T14:47:34.637Z,100932
2022-10-30T14:52:34.755Z,100935
2022-10-30T14:57:34.589Z,100919
2022-10-30T15:02:34.753Z,100914
2022-10-30T15:07:34.595Z,100914
2022-10-30T15:12:34.721Z,100917
2022-10-30T15:17:34.658Z,100917
2022-10-30T15:22:34.686Z,100914
2022-10-30T15:27:34.808Z,100925
2022-10-30T15:32:34.680Z,100919
2022-10-30T15:37:34.778Z,100919
2022-10-30T15:42:35.086Z,100924
2022-10-30T15:47:34.745Z,100930
2022-10-30T15:52:34.884Z,100930
2022-10-30T15:58:13.314Z,100921
2022-10-30T16:02:35.006Z,100933
2022-10-30T16:07:34.771Z,100929
2022-10-30T16:12:34.797Z,100937
2022-10-30T16:17:34.610Z,100934
2022-10-30T16:22:34.613Z,100936
2022-10-30T16:27:34.939Z,100936
2022-10-30T16:32:34.915Z,100938
2022-10-30T16:37:34.913Z,100938
2022-10-30T16:42:34.625Z,100934
2022-10-30T16:47:34.871Z,100934
2022-10-30T16:52:34.858Z,100940
2022-10-30T16:57:36.087Z,100935
2022-10-30T17:02:34.735Z,100935
2022-10-30T17:07:34.661Z,100937
2022-10-30T17:12:34.982Z,100936
2022-10-30T17:17:34.847Z,100949
2022-10-30T17:22:35.023Z,100952
2022-10-30T17:27:34.630Z,100952
2022-10-30T17:32:34.961Z,100957
2022-10-30T17:37:34.658Z,100954
2022-10-30T17:42:34.909Z,100967
2022-10-30T17:47:34.662Z,100966
2022-10-30T17:57:36.021Z,100967
2022-10-30T18:02:35.014Z,100970
2022-10-30T18:07:34.964Z,100974
2022-10-30T18:12:34.769Z,100960
2022-10-30T18:17:34.909Z,100960
2022-10-30T18:22:34.869Z,100960
2022-10-30T18:27:35.007Z,100960
2022-10-30T18:32:34.920Z,100959
2022-10-30T18:37:34.942Z,100959
2022-10-30T18:42:34.991Z,100957
2022-10-30T18:47:35.018Z,100959
2022-10-30T18:52:34.904Z,100959
2022-10-30T18:57:35.044Z,100959
2022-10-30T19:02:35.097Z,100966
2022-10-30T19:07:34.905Z,100966
2022-10-30T19:12:38.468Z,100962
2022-10-30T19:27:34.955Z,100963
2022-10-30T19:32:34.936Z,100960
2022-10-30T19:37:35.026Z,100960
2022-10-30T19:42:35.295Z,100967
2022-10-30T19:47:35.334Z,100964
2022-10-30T19:52:35.033Z,100965
2022-10-30T19:57:34.940Z,100960
2022-10-30T20:02:35.092Z,100960
2022-10-30T20:07:34.725Z,100972
2022-10-30T20:12:35.057Z,100973
2022-10-30T20:17:34.740Z,100972
2022-10-30T20:22:36.251Z,100973
2022-10-30T20:27:35.063Z,100973
2022-10-30T20:32:34.944Z,100967
2022-10-30T20:37:34.874Z,100963
2022-10-30T20:42:37.380Z,100963
2022-10-30T20:52:34.999Z,100967
2022-10-30T20:57:34.875Z,100961
2022-10-30T21:02:34.946Z,100961
2022-10-30T21:07:34.727Z,100955
2022-10-30T21:12:35.091Z,100956
2022-10-30T21:17:34.751Z,100954
2022-10-30T21:22:34.945Z,100954
2022-10-30T21:27:34.870Z,100953
2022-10-30T21:32:34.822Z,100956
2022-10-30T21:37:34.928Z,100962
2022-10-30T21:42:34.762Z,100955
2022-10-30T21:47:34.882Z,100951
2022-10-30T21:52:34.811Z,100944
2022-10-30T21:57:34.859Z,100944
2022-10-30T22:02:34.756Z,100944
2022-10-30T22:07:34.851Z,100956
2022-10-30T22:12:34.747Z,100955
2022-10-30T22:22:34.794Z,100952
2022-10-30T22:27:35.089Z,100949
2022-10-30T22:32:34.767Z,100954
2022-10-30T22:37:35.058Z,100962
2022-10-30T22:42:34.789Z,100962
2022-10-30T22:47:35.006Z,100964
2022-10-30T22:52:34.839Z,100960
2022-10-30T22:57:35.004Z,100965
2022-10-30T23:02:34.808Z,100969
2022-10-30T23:07:34.991Z,100954
2022-10-30T23:12:35.161Z,100957
2022-10-30T23:17:34.805Z,100958
2022-10-30T23:22:35.064Z,100958
2022-10-30T23:27:34.816Z,100950
2022-10-30T23:32:34.846Z,100944
2022-10-30T23:37:34.836Z,100936
2022-10-30T23:42:34.818Z,100938
2022-10-30T23:47:34.834Z,100938
2022-10-30T23:52:34.993Z,100941
2022-10-30T23:57:35.109Z,100941
